sensor_id;sensor_type;location;lat;lon;timestamp;P1;durP1;ratioP1;P2;durP2;ratioP2
70342;SDS011;57767;42.068;24.752;2024-02-23T00:00:06;32.55;;;25.65;;
70342;SDS011;57767;42.068;24.752;2024-02-23T00:01:08;36.42;;;26.65;;
70342;SDS011;57767;42.068;24.752;2024-02-23T00:02:12;38.42;;;27.05;;
70342;SDS011;57767;42.068;24.752;2024-02-23T00:03:14;35.22;;;26.40;;
70342;SDS011;57767;42.068;24.752;2024-02-23T00:04:15;36.90;;;26.73;;
70342;SDS011;57767;42.068;24.752;2024-02-23T00:05:17;34.30;;;25.73;;
70342;SDS011;57767;42.068;24.752;2024-02-23T00:06:20;32.72;;;24.83;;
70342;SDS011;57767;42.068;24.752;2024-02-23T00:07:22;32.08;;;23.48;;
70342;SDS011;57767;42.068;24.752;2024-02-23T00:08:23;32.72;;;23.40;;
70342;SDS011;57767;42.068;24.752;2024-02-23T00:09:25;28.98;;;23.50;;
70342;SDS011;57767;42.068;24.752;2024-02-23T00:10:28;30.33;;;23.05;;
70342;SDS011;57767;42.068;24.752;2024-02-23T00:11:29;29.35;;;23.20;;
70342;SDS011;57767;42.068;24.752;2024-02-23T00:12:31;30.73;;;24.23;;
70342;SDS011;57767;42.068;24.752;2024-02-23T00:13:33;28.83;;;23.38;;
70342;SDS011;57767;42.068;24.752;2024-02-23T00:14:34;31.25;;;24.48;;
70342;SDS011;57767;42.068;24.752;2024-02-23T00:15:39;29.45;;;24.58;;
70342;SDS011;57767;42.068;24.752;2024-02-23T00:16:40;29.35;;;24.27;;
70342;SDS011;57767;42.068;24.752;2024-02-23T00:17:42;28.30;;;22.13;;
70342;SDS011;57767;42.068;24.752;2024-02-23T00:18:44;27.60;;;23.30;;
70342;SDS011;57767;42.068;24.752;2024-02-23T00:19:45;27.98;;;23.13;;
70342;SDS011;57767;42.068;24.752;2024-02-23T00:20:48;29.45;;;24.08;;
70342;SDS011;57767;42.068;24.752;2024-02-23T00:21:50;28.67;;;24.27;;
70342;SDS011;57767;42.068;24.752;2024-02-23T00:22:52;30.35;;;22.83;;
70342;SDS011;57767;42.068;24.752;2024-02-23T00:23:54;29.85;;;23.02;;
70342;SDS011;57767;42.068;24.752;2024-02-23T00:24:56;30.65;;;24.10;;
70342;SDS011;57767;42.068;24.752;2024-02-23T00:25:57;29.83;;;23.90;;
70342;SDS011;57767;42.068;24.752;2024-02-23T00:26:59;28.88;;;23.98;;
70342;SDS011;57767;42.068;24.752;2024-02-23T00:28:01;32.65;;;25.83;;
70342;SDS011;57767;42.068;24.752;2024-02-23T00:29:02;32.97;;;25.67;;
70342;SDS011;57767;42.068;24.752;2024-02-23T00:30:04;31.70;;;24.95;;
70342;SDS011;57767;42.068;24.752;2024-02-23T00:31:06;30.85;;;24.85;;
70342;SDS011;57767;42.068;24.752;2024-02-23T00:32:08;36.70;;;24.95;;
70342;SDS011;57767;42.068;24.752;2024-02-23T00:33:10;33.22;;;25.80;;
70342;SDS011;57767;42.068;24.752;2024-02-23T00:34:11;29.95;;;24.08;;
70342;SDS011;57767;42.068;24.752;2024-02-23T00:35:14;31.42;;;25.20;;
70342;SDS011;57767;42.068;24.752;2024-02-23T00:36:16;32.00;;;25.02;;
70342;SDS011;57767;42.068;24.752;2024-02-23T00:37:18;34.53;;;24.73;;
70342;SDS011;57767;42.068;24.752;2024-02-23T00:38:19;32.20;;;26.58;;
70342;SDS011;57767;42.068;24.752;2024-02-23T00:39:21;31.27;;;25.40;;
70342;SDS011;57767;42.068;24.752;2024-02-23T00:40:22;31.20;;;24.80;;
70342;SDS011;57767;42.068;24.752;2024-02-23T00:41:24;29.15;;;24.83;;
70342;SDS011;57767;42.068;24.752;2024-02-23T00:42:26;28.67;;;24.50;;
70342;SDS011;57767;42.068;24.752;2024-02-23T00:43:28;28.25;;;23.38;;
70342;SDS011;57767;42.068;24.752;2024-02-23T00:44:32;29.85;;;21.98;;
70342;SDS011;57767;42.068;24.752;2024-02-23T00:45:34;28.42;;;22.73;;
70342;SDS011;57767;42.068;24.752;2024-02-23T00:46:36;28.67;;;21.65;;
70342;SDS011;57767;42.068;24.752;2024-02-23T00:47:37;26.83;;;21.75;;
70342;SDS011;57767;42.068;24.752;2024-02-23T00:48:39;25.95;;;21.23;;
70342;SDS011;57767;42.068;24.752;2024-02-23T00:49:41;25.25;;;21.95;;
70342;SDS011;57767;42.068;24.752;2024-02-23T00:50:42;26.13;;;22.30;;
70342;SDS011;57767;42.068;24.752;2024-02-23T00:51:44;25.98;;;21.42;;
70342;SDS011;57767;42.068;24.752;2024-02-23T00:52:46;26.98;;;22.08;;
70342;SDS011;57767;42.068;24.752;2024-02-23T00:53:47;26.85;;;22.23;;
70342;SDS011;57767;42.068;24.752;2024-02-23T00:54:49;28.52;;;22.27;;
70342;SDS011;57767;42.068;24.752;2024-02-23T00:55:50;27.55;;;21.55;;
70342;SDS011;57767;42.068;24.752;2024-02-23T00:56:52;27.67;;;21.70;;
70342;SDS011;57767;42.068;24.752;2024-02-23T00:57:57;27.15;;;21.67;;
70342;SDS011;57767;42.068;24.752;2024-02-23T00:59:00;28.90;;;21.83;;
70342;SDS011;57767;42.068;24.752;2024-02-23T01:00:02;27.15;;;22.70;;
70342;SDS011;57767;42.068;24.752;2024-02-23T01:01:06;28.35;;;22.63;;
70342;SDS011;57767;42.068;24.752;2024-02-23T01:02:08;32.78;;;22.92;;
70342;SDS011;57767;42.068;24.752;2024-02-23T01:03:10;26.05;;;20.95;;
70342;SDS011;57767;42.068;24.752;2024-02-23T01:04:11;30.73;;;20.75;;
70342;SDS011;57767;42.068;24.752;2024-02-23T01:05:13;26.20;;;20.95;;
70342;SDS011;57767;42.068;24.752;2024-02-23T01:06:15;27.77;;;21.35;;
70342;SDS011;57767;42.068;24.752;2024-02-23T01:07:18;26.08;;;20.48;;
70342;SDS011;57767;42.068;24.752;2024-02-23T01:08:19;24.45;;;19.42;;
70342;SDS011;57767;42.068;24.752;2024-02-23T01:09:21;26.42;;;20.92;;
70342;SDS011;57767;42.068;24.752;2024-02-23T01:10:23;24.83;;;20.77;;
70342;SDS011;57767;42.068;24.752;2024-02-23T01:11:24;27.63;;;20.55;;
70342;SDS011;57767;42.068;24.752;2024-02-23T01:12:27;24.92;;;20.30;;
70342;SDS011;57767;42.068;24.752;2024-02-23T01:13:29;24.70;;;19.85;;
70342;SDS011;57767;42.068;24.752;2024-02-23T01:14:31;25.92;;;20.73;;
70342;SDS011;57767;42.068;24.752;2024-02-23T01:15:33;25.38;;;19.35;;
70342;SDS011;57767;42.068;24.752;2024-02-23T01:16:35;23.50;;;19.35;;
70342;SDS011;57767;42.068;24.752;2024-02-23T01:17:37;22.50;;;18.80;;
70342;SDS011;57767;42.068;24.752;2024-02-23T01:18:39;24.70;;;19.85;;
70342;SDS011;57767;42.068;24.752;2024-02-23T01:19:41;23.35;;;19.08;;
70342;SDS011;57767;42.068;24.752;2024-02-23T01:20:44;24.33;;;19.65;;
70342;SDS011;57767;42.068;24.752;2024-02-23T01:21:46;25.88;;;19.20;;
70342;SDS011;57767;42.068;24.752;2024-02-23T01:22:48;23.73;;;19.58;;
70342;SDS011;57767;42.068;24.752;2024-02-23T01:23:49;25.35;;;19.83;;
70342;SDS011;57767;42.068;24.752;2024-02-23T01:24:51;18.75;;;16.50;;
70342;SDS011;57767;42.068;24.752;2024-02-23T01:25:52;27.60;;;20.00;;
70342;SDS011;57767;42.068;24.752;2024-02-23T01:26:55;26.25;;;19.85;;
70342;SDS011;57767;42.068;24.752;2024-02-23T01:27:57;29.42;;;22.70;;
70342;SDS011;57767;42.068;24.752;2024-02-23T01:28:59;28.30;;;22.77;;
70342;SDS011;57767;42.068;24.752;2024-02-23T01:30:00;29.30;;;24.50;;
70342;SDS011;57767;42.068;24.752;2024-02-23T01:31:02;43.53;;;38.22;;
70342;SDS011;57767;42.068;24.752;2024-02-23T01:32:08;39.13;;;34.42;;
70342;SDS011;57767;42.068;24.752;2024-02-23T01:33:10;32.30;;;27.38;;
70342;SDS011;57767;42.068;24.752;2024-02-23T01:34:12;33.70;;;27.13;;
70342;SDS011;57767;42.068;24.752;2024-02-23T01:35:13;37.25;;;29.30;;
70342;SDS011;57767;42.068;24.752;2024-02-23T01:36:15;32.95;;;28.38;;
70342;SDS011;57767;42.068;24.752;2024-02-23T01:37:17;30.63;;;25.27;;
70342;SDS011;57767;42.068;24.752;2024-02-23T01:38:18;29.85;;;23.33;;
70342;SDS011;57767;42.068;24.752;2024-02-23T01:39:22;27.70;;;23.02;;
70342;SDS011;57767;42.068;24.752;2024-02-23T01:40:23;28.27;;;23.45;;
70342;SDS011;57767;42.068;24.752;2024-02-23T01:41:25;27.35;;;22.83;;
70342;SDS011;57767;42.068;24.752;2024-02-23T01:42:27;30.98;;;24.48;;
70342;SDS011;57767;42.068;24.752;2024-02-23T01:43:28;28.40;;;23.70;;
70342;SDS011;57767;42.068;24.752;2024-02-23T01:44:30;30.50;;;23.73;;
70342;SDS011;57767;42.068;24.752;2024-02-23T01:45:32;27.05;;;23.13;;
70342;SDS011;57767;42.068;24.752;2024-02-23T01:46:34;31.55;;;23.35;;
70342;SDS011;57767;42.068;24.752;2024-02-23T01:47:35;27.55;;;22.90;;
70342;SDS011;57767;42.068;24.752;2024-02-23T01:48:37;27.55;;;22.92;;
70342;SDS011;57767;42.068;24.752;2024-02-23T01:49:39;29.77;;;23.60;;
70342;SDS011;57767;42.068;24.752;2024-02-23T01:50:41;29.60;;;23.77;;
70342;SDS011;57767;42.068;24.752;2024-02-23T01:51:44;29.30;;;22.67;;
70342;SDS011;57767;42.068;24.752;2024-02-23T01:52:45;28.38;;;22.90;;
70342;SDS011;57767;42.068;24.752;2024-02-23T01:53:47;31.10;;;23.15;;
70342;SDS011;57767;42.068;24.752;2024-02-23T01:54:49;28.65;;;23.90;;
70342;SDS011;57767;42.068;24.752;2024-02-23T01:55:51;28.95;;;23.30;;
70342;SDS011;57767;42.068;24.752;2024-02-23T01:56:55;30.27;;;21.98;;
70342;SDS011;57767;42.068;24.752;2024-02-23T01:57:57;28.63;;;22.23;;
70342;SDS011;57767;42.068;24.752;2024-02-23T01:59:00;27.30;;;23.13;;
70342;SDS011;57767;42.068;24.752;2024-02-23T02:00:05;30.77;;;22.50;;
70342;SDS011;57767;42.068;24.752;2024-02-23T02:01:08;27.73;;;21.85;;
70342;SDS011;57767;42.068;24.752;2024-02-23T02:02:10;28.40;;;22.85;;
70342;SDS011;57767;42.068;24.752;2024-02-23T02:03:11;26.83;;;22.40;;
70342;SDS011;57767;42.068;24.752;2024-02-23T02:04:13;27.92;;;22.42;;
70342;SDS011;57767;42.068;24.752;2024-02-23T02:05:15;27.60;;;22.20;;
70342;SDS011;57767;42.068;24.752;2024-02-23T02:06:16;26.08;;;21.35;;
70342;SDS011;57767;42.068;24.752;2024-02-23T02:07:19;26.30;;;21.17;;
70342;SDS011;57767;42.068;24.752;2024-02-23T02:08:25;25.45;;;21.17;;
70342;SDS011;57767;42.068;24.752;2024-02-23T02:09:27;24.30;;;20.95;;
70342;SDS011;57767;42.068;24.752;2024-02-23T02:10:29;27.55;;;21.70;;
70342;SDS011;57767;42.068;24.752;2024-02-23T02:11:31;25.48;;;21.00;;
70342;SDS011;57767;42.068;24.752;2024-02-23T02:12:32;24.52;;;20.70;;
70342;SDS011;57767;42.068;24.752;2024-02-23T02:13:34;23.65;;;20.73;;
70342;SDS011;57767;42.068;24.752;2024-02-23T02:14:35;26.80;;;20.48;;
70342;SDS011;57767;42.068;24.752;2024-02-23T02:15:40;27.08;;;20.45;;
70342;SDS011;57767;42.068;24.752;2024-02-23T02:16:44;25.75;;;21.35;;
70342;SDS011;57767;42.068;24.752;2024-02-23T02:17:46;26.20;;;21.05;;
70342;SDS011;57767;42.068;24.752;2024-02-23T02:18:48;22.55;;;19.60;;
70342;SDS011;57767;42.068;24.752;2024-02-23T02:19:50;24.75;;;19.95;;
70342;SDS011;57767;42.068;24.752;2024-02-23T02:20:53;23.92;;;18.70;;
70342;SDS011;57767;42.068;24.752;2024-02-23T02:21:56;24.30;;;19.55;;
70342;SDS011;57767;42.068;24.752;2024-02-23T02:22:58;24.63;;;19.77;;
70342;SDS011;57767;42.068;24.752;2024-02-23T02:24:00;22.65;;;18.80;;
70342;SDS011;57767;42.068;24.752;2024-02-23T02:25:02;22.85;;;19.42;;
70342;SDS011;57767;42.068;24.752;2024-02-23T02:26:03;22.75;;;18.63;;
70342;SDS011;57767;42.068;24.752;2024-02-23T02:27:05;23.17;;;19.10;;
70342;SDS011;57767;42.068;24.752;2024-02-23T02:28:07;21.80;;;17.38;;
70342;SDS011;57767;42.068;24.752;2024-02-23T02:29:09;23.77;;;18.60;;
70342;SDS011;57767;42.068;24.752;2024-02-23T02:30:11;22.95;;;18.70;;
70342;SDS011;57767;42.068;24.752;2024-02-23T02:31:14;22.70;;;18.90;;
70342;SDS011;57767;42.068;24.752;2024-02-23T02:32:15;21.98;;;18.73;;
70342;SDS011;57767;42.068;24.752;2024-02-23T02:33:17;20.90;;;17.92;;
70342;SDS011;57767;42.068;24.752;2024-02-23T02:34:18;20.63;;;18.17;;
70342;SDS011;57767;42.068;24.752;2024-02-23T02:35:20;21.02;;;17.00;;
70342;SDS011;57767;42.068;24.752;2024-02-23T02:36:22;24.77;;;18.20;;
70342;SDS011;57767;42.068;24.752;2024-02-23T02:37:23;22.92;;;18.42;;
70342;SDS011;57767;42.068;24.752;2024-02-23T02:38:25;21.05;;;18.40;;
70342;SDS011;57767;42.068;24.752;2024-02-23T02:39:27;22.33;;;18.90;;
70342;SDS011;57767;42.068;24.752;2024-02-23T02:40:29;24.45;;;20.08;;
70342;SDS011;57767;42.068;24.752;2024-02-23T02:41:31;23.30;;;19.48;;
70342;SDS011;57767;42.068;24.752;2024-02-23T02:42:33;26.45;;;20.05;;
70342;SDS011;57767;42.068;24.752;2024-02-23T02:43:34;23.88;;;19.50;;
70342;SDS011;57767;42.068;24.752;2024-02-23T02:44:36;23.17;;;19.42;;
70342;SDS011;57767;42.068;24.752;2024-02-23T02:45:38;20.52;;;18.20;;
70342;SDS011;57767;42.068;24.752;2024-02-23T02:46:40;22.45;;;18.77;;
70342;SDS011;57767;42.068;24.752;2024-02-23T02:47:42;21.60;;;17.10;;
70342;SDS011;57767;42.068;24.752;2024-02-23T02:48:43;22.80;;;18.88;;
70342;SDS011;57767;42.068;24.752;2024-02-23T02:49:45;39.38;;;30.27;;
70342;SDS011;57767;42.068;24.752;2024-02-23T02:50:47;29.13;;;23.77;;
70342;SDS011;57767;42.068;24.752;2024-02-23T02:51:51;23.85;;;20.38;;
70342;SDS011;57767;42.068;24.752;2024-02-23T02:52:53;25.27;;;20.25;;
70342;SDS011;57767;42.068;24.752;2024-02-23T02:53:54;24.60;;;20.70;;
70342;SDS011;57767;42.068;24.752;2024-02-23T02:54:56;26.13;;;20.38;;
70342;SDS011;57767;42.068;24.752;2024-02-23T02:55:58;27.75;;;20.60;;
70342;SDS011;57767;42.068;24.752;2024-02-23T02:56:59;27.00;;;21.20;;
70342;SDS011;57767;42.068;24.752;2024-02-23T02:58:01;25.73;;;19.92;;
70342;SDS011;57767;42.068;24.752;2024-02-23T02:59:02;25.23;;;20.70;;
70342;SDS011;57767;42.068;24.752;2024-02-23T03:00:04;24.25;;;20.05;;
70342;SDS011;57767;42.068;24.752;2024-02-23T03:01:07;24.10;;;20.52;;
70342;SDS011;57767;42.068;24.752;2024-02-23T03:02:09;25.00;;;19.48;;
70342;SDS011;57767;42.068;24.752;2024-02-23T03:03:11;24.55;;;19.30;;
70342;SDS011;57767;42.068;24.752;2024-02-23T03:04:14;23.27;;;19.58;;
70342;SDS011;57767;42.068;24.752;2024-02-23T03:05:15;23.20;;;18.60;;
70342;SDS011;57767;42.068;24.752;2024-02-23T03:06:17;22.77;;;19.75;;
70342;SDS011;57767;42.068;24.752;2024-02-23T03:07:18;24.65;;;19.17;;
70342;SDS011;57767;42.068;24.752;2024-02-23T03:08:22;22.85;;;18.00;;
70342;SDS011;57767;42.068;24.752;2024-02-23T03:09:24;25.80;;;18.60;;
70342;SDS011;57767;42.068;24.752;2024-02-23T03:10:25;23.83;;;19.10;;
70342;SDS011;57767;42.068;24.752;2024-02-23T03:11:27;23.33;;;19.98;;
70342;SDS011;57767;42.068;24.752;2024-02-23T03:12:29;26.60;;;20.02;;
70342;SDS011;57767;42.068;24.752;2024-02-23T03:13:30;22.95;;;18.45;;
70342;SDS011;57767;42.068;24.752;2024-02-23T03:14:33;22.15;;;18.27;;
70342;SDS011;57767;42.068;24.752;2024-02-23T03:15:38;27.55;;;18.02;;
70342;SDS011;57767;42.068;24.752;2024-02-23T03:16:40;23.58;;;19.17;;
70342;SDS011;57767;42.068;24.752;2024-02-23T03:17:43;23.88;;;20.17;;
70342;SDS011;57767;42.068;24.752;2024-02-23T03:18:45;26.48;;;21.08;;
70342;SDS011;57767;42.068;24.752;2024-02-23T03:19:47;26.23;;;21.20;;
70342;SDS011;57767;42.068;24.752;2024-02-23T03:20:48;27.08;;;21.50;;
70342;SDS011;57767;42.068;24.752;2024-02-23T03:21:50;28.80;;;23.90;;
70342;SDS011;57767;42.068;24.752;2024-02-23T03:22:52;26.80;;;21.40;;
70342;SDS011;57767;42.068;24.752;2024-02-23T03:23:53;28.45;;;23.60;;
70342;SDS011;57767;42.068;24.752;2024-02-23T03:24:55;29.98;;;23.05;;
70342;SDS011;57767;42.068;24.752;2024-02-23T03:25:57;26.90;;;22.27;;
70342;SDS011;57767;42.068;24.752;2024-02-23T03:26:58;28.30;;;22.73;;
70342;SDS011;57767;42.068;24.752;2024-02-23T03:28:01;28.13;;;22.77;;
70342;SDS011;57767;42.068;24.752;2024-02-23T03:29:02;28.75;;;23.58;;
70342;SDS011;57767;42.068;24.752;2024-02-23T03:30:04;26.30;;;21.98;;
70342;SDS011;57767;42.068;24.752;2024-02-23T03:31:09;30.00;;;24.23;;
70342;SDS011;57767;42.068;24.752;2024-02-23T03:32:10;29.80;;;23.08;;
70342;SDS011;57767;42.068;24.752;2024-02-23T03:33:12;28.48;;;23.33;;
70342;SDS011;57767;42.068;24.752;2024-02-23T03:34:14;27.73;;;23.40;;
70342;SDS011;57767;42.068;24.752;2024-02-23T03:35:15;27.40;;;22.48;;
70342;SDS011;57767;42.068;24.752;2024-02-23T03:36:17;27.63;;;23.50;;
70342;SDS011;57767;42.068;24.752;2024-02-23T03:37:18;29.80;;;24.30;;
70342;SDS011;57767;42.068;24.752;2024-02-23T03:38:20;29.90;;;25.02;;
70342;SDS011;57767;42.068;24.752;2024-02-23T03:39:22;31.95;;;25.83;;
70342;SDS011;57767;42.068;24.752;2024-02-23T03:40:24;30.60;;;26.67;;
70342;SDS011;57767;42.068;24.752;2024-02-23T03:41:25;33.65;;;27.35;;
70342;SDS011;57767;42.068;24.752;2024-02-23T03:42:28;31.08;;;24.67;;
70342;SDS011;57767;42.068;24.752;2024-02-23T03:43:29;34.08;;;27.80;;
70342;SDS011;57767;42.068;24.752;2024-02-23T03:44:34;34.25;;;25.45;;
70342;SDS011;57767;42.068;24.752;2024-02-23T03:45:36;29.38;;;24.38;;
70342;SDS011;57767;42.068;24.752;2024-02-23T03:46:38;31.98;;;24.95;;
70342;SDS011;57767;42.068;24.752;2024-02-23T03:47:39;29.85;;;24.67;;
70342;SDS011;57767;42.068;24.752;2024-02-23T03:48:43;36.05;;;26.38;;
70342;SDS011;57767;42.068;24.752;2024-02-23T03:49:46;28.92;;;24.00;;
70342;SDS011;57767;42.068;24.752;2024-02-23T03:50:48;34.60;;;25.02;;
70342;SDS011;57767;42.068;24.752;2024-02-23T03:51:49;28.27;;;23.20;;
70342;SDS011;57767;42.068;24.752;2024-02-23T03:52:51;28.05;;;23.38;;
70342;SDS011;57767;42.068;24.752;2024-02-23T03:53:52;27.67;;;21.92;;
70342;SDS011;57767;42.068;24.752;2024-02-23T03:54:54;28.90;;;22.88;;
70342;SDS011;57767;42.068;24.752;2024-02-23T03:55:59;26.42;;;21.55;;
70342;SDS011;57767;42.068;24.752;2024-02-23T03:57:01;28.10;;;22.70;;
70342;SDS011;57767;42.068;24.752;2024-02-23T03:58:04;28.00;;;22.35;;
70342;SDS011;57767;42.068;24.752;2024-02-23T03:59:05;27.20;;;22.52;;
70342;SDS011;57767;42.068;24.752;2024-02-23T04:00:10;31.33;;;22.83;;
70342;SDS011;57767;42.068;24.752;2024-02-23T04:01:12;26.02;;;21.55;;
70342;SDS011;57767;42.068;24.752;2024-02-23T04:02:14;25.20;;;21.27;;
70342;SDS011;57767;42.068;24.752;2024-02-23T04:03:16;25.40;;;21.67;;
70342;SDS011;57767;42.068;24.752;2024-02-23T04:04:18;26.35;;;20.65;;
70342;SDS011;57767;42.068;24.752;2024-02-23T04:05:19;26.85;;;21.50;;
70342;SDS011;57767;42.068;24.752;2024-02-23T04:06:21;23.98;;;20.90;;
70342;SDS011;57767;42.068;24.752;2024-02-23T04:07:23;24.02;;;21.00;;
70342;SDS011;57767;42.068;24.752;2024-02-23T04:08:25;27.65;;;21.70;;
70342;SDS011;57767;42.068;24.752;2024-02-23T04:09:26;27.08;;;22.55;;
70342;SDS011;57767;42.068;24.752;2024-02-23T04:10:28;26.38;;;22.27;;
70342;SDS011;57767;42.068;24.752;2024-02-23T04:11:30;25.23;;;21.23;;
70342;SDS011;57767;42.068;24.752;2024-02-23T04:12:32;25.90;;;21.45;;
70342;SDS011;57767;42.068;24.752;2024-02-23T04:13:34;29.98;;;23.15;;
70342;SDS011;57767;42.068;24.752;2024-02-23T04:14:35;29.55;;;23.02;;
70342;SDS011;57767;42.068;24.752;2024-02-23T04:15:38;38.47;;;29.40;;
70342;SDS011;57767;42.068;24.752;2024-02-23T04:16:39;56.28;;;37.50;;
70342;SDS011;57767;42.068;24.752;2024-02-23T04:17:41;52.50;;;35.95;;
70342;SDS011;57767;42.068;24.752;2024-02-23T04:18:43;50.67;;;36.22;;
70342;SDS011;57767;42.068;24.752;2024-02-23T04:19:44;50.20;;;34.35;;
70342;SDS011;57767;42.068;24.752;2024-02-23T04:20:46;40.65;;;31.10;;
70342;SDS011;57767;42.068;24.752;2024-02-23T04:21:47;43.92;;;32.25;;
70342;SDS011;57767;42.068;24.752;2024-02-23T04:22:49;45.40;;;33.60;;
70342;SDS011;57767;42.068;24.752;2024-02-23T04:23:51;62.70;;;46.10;;
70342;SDS011;57767;42.068;24.752;2024-02-23T04:24:52;62.47;;;50.65;;
70342;SDS011;57767;42.068;24.752;2024-02-23T04:25:54;47.88;;;40.05;;
70342;SDS011;57767;42.068;24.752;2024-02-23T04:26:55;40.45;;;31.67;;
70342;SDS011;57767;42.068;24.752;2024-02-23T04:27:57;33.80;;;27.48;;
70342;SDS011;57767;42.068;24.752;2024-02-23T04:28:59;37.05;;;27.15;;
70342;SDS011;57767;42.068;24.752;2024-02-23T04:30:00;31.20;;;25.67;;
70342;SDS011;57767;42.068;24.752;2024-02-23T04:31:02;31.33;;;25.85;;
70342;SDS011;57767;42.068;24.752;2024-02-23T04:32:04;30.60;;;24.45;;
70342;SDS011;57767;42.068;24.752;2024-02-23T04:33:06;32.80;;;25.73;;
70342;SDS011;57767;42.068;24.752;2024-02-23T04:34:08;32.10;;;26.40;;
70342;SDS011;57767;42.068;24.752;2024-02-23T04:35:10;34.65;;;26.65;;
70342;SDS011;57767;42.068;24.752;2024-02-23T04:36:11;33.08;;;25.42;;
70342;SDS011;57767;42.068;24.752;2024-02-23T04:37:13;32.28;;;23.58;;
70342;SDS011;57767;42.068;24.752;2024-02-23T04:38:14;32.38;;;24.52;;
70342;SDS011;57767;42.068;24.752;2024-02-23T04:39:16;32.03;;;24.95;;
70342;SDS011;57767;42.068;24.752;2024-02-23T04:40:17;34.85;;;26.50;;
70342;SDS011;57767;42.068;24.752;2024-02-23T04:41:19;32.50;;;24.80;;
70342;SDS011;57767;42.068;24.752;2024-02-23T04:42:23;29.00;;;23.27;;
70342;SDS011;57767;42.068;24.752;2024-02-23T04:43:25;26.33;;;23.20;;
70342;SDS011;57767;42.068;24.752;2024-02-23T04:44:26;28.00;;;23.67;;
70342;SDS011;57767;42.068;24.752;2024-02-23T04:45:28;27.95;;;22.67;;
70342;SDS011;57767;42.068;24.752;2024-02-23T04:46:33;27.90;;;23.33;;
70342;SDS011;57767;42.068;24.752;2024-02-23T04:47:35;29.38;;;24.25;;
70342;SDS011;57767;42.068;24.752;2024-02-23T04:48:37;31.17;;;24.20;;
70342;SDS011;57767;42.068;24.752;2024-02-23T04:49:39;28.33;;;25.20;;
70342;SDS011;57767;42.068;24.752;2024-02-23T04:50:40;29.50;;;23.98;;
70342;SDS011;57767;42.068;24.752;2024-02-23T04:51:42;27.52;;;23.05;;
70342;SDS011;57767;42.068;24.752;2024-02-23T04:52:44;25.73;;;20.85;;
70342;SDS011;57767;42.068;24.752;2024-02-23T04:53:46;23.50;;;20.67;;
70342;SDS011;57767;42.068;24.752;2024-02-23T04:54:48;27.13;;;21.38;;
70342;SDS011;57767;42.068;24.752;2024-02-23T04:55:50;23.17;;;19.77;;
70342;SDS011;57767;42.068;24.752;2024-02-23T04:56:51;25.17;;;19.23;;
70342;SDS011;57767;42.068;24.752;2024-02-23T04:57:53;23.17;;;18.70;;
70342;SDS011;57767;42.068;24.752;2024-02-23T04:58:54;26.15;;;21.13;;
70342;SDS011;57767;42.068;24.752;2024-02-23T04:59:56;30.58;;;23.08;;
70342;SDS011;57767;42.068;24.752;2024-02-23T05:00:58;29.50;;;21.17;;
70342;SDS011;57767;42.068;24.752;2024-02-23T05:01:59;29.48;;;21.65;;
70342;SDS011;57767;42.068;24.752;2024-02-23T05:03:01;27.90;;;20.92;;
70342;SDS011;57767;42.068;24.752;2024-02-23T05:04:05;27.33;;;20.30;;
70342;SDS011;57767;42.068;24.752;2024-02-23T05:05:07;26.00;;;19.80;;
70342;SDS011;57767;42.068;24.752;2024-02-23T05:06:09;25.00;;;20.42;;
70342;SDS011;57767;42.068;24.752;2024-02-23T05:07:10;25.55;;;19.67;;
70342;SDS011;57767;42.068;24.752;2024-02-23T05:08:12;27.67;;;19.35;;
70342;SDS011;57767;42.068;24.752;2024-02-23T05:09:13;22.70;;;19.08;;
70342;SDS011;57767;42.068;24.752;2024-02-23T05:10:15;25.42;;;19.30;;
70342;SDS011;57767;42.068;24.752;2024-02-23T05:11:18;24.42;;;20.42;;
70342;SDS011;57767;42.068;24.752;2024-02-23T05:12:20;28.02;;;20.08;;
70342;SDS011;57767;42.068;24.752;2024-02-23T05:13:21;22.83;;;19.02;;
70342;SDS011;57767;42.068;24.752;2024-02-23T05:14:23;27.33;;;20.67;;
70342;SDS011;57767;42.068;24.752;2024-02-23T05:15:25;23.35;;;20.15;;
70342;SDS011;57767;42.068;24.752;2024-02-23T05:16:26;28.17;;;20.98;;
70342;SDS011;57767;42.068;24.752;2024-02-23T05:17:28;23.17;;;20.33;;
70342;SDS011;57767;42.068;24.752;2024-02-23T05:18:30;23.70;;;20.38;;
70342;SDS011;57767;42.068;24.752;2024-02-23T05:19:31;25.52;;;20.60;;
70342;SDS011;57767;42.068;24.752;2024-02-23T05:20:33;28.13;;;21.52;;
70342;SDS011;57767;42.068;24.752;2024-02-23T05:21:35;26.63;;;22.23;;
70342;SDS011;57767;42.068;24.752;2024-02-23T05:22:38;29.13;;;23.25;;
70342;SDS011;57767;42.068;24.752;2024-02-23T05:23:40;29.70;;;22.00;;
70342;SDS011;57767;42.068;24.752;2024-02-23T05:24:42;29.55;;;21.83;;
70342;SDS011;57767;42.068;24.752;2024-02-23T05:25:45;25.63;;;21.70;;
70342;SDS011;57767;42.068;24.752;2024-02-23T05:26:47;30.38;;;22.58;;
70342;SDS011;57767;42.068;24.752;2024-02-23T05:27:49;30.80;;;22.80;;
70342;SDS011;57767;42.068;24.752;2024-02-23T05:28:50;27.45;;;22.42;;
70342;SDS011;57767;42.068;24.752;2024-02-23T05:29:53;27.30;;;22.33;;
70342;SDS011;57767;42.068;24.752;2024-02-23T05:30:55;25.35;;;22.27;;
70342;SDS011;57767;42.068;24.752;2024-02-23T05:31:57;26.92;;;22.63;;
70342;SDS011;57767;42.068;24.752;2024-02-23T05:32:59;27.10;;;21.58;;
70342;SDS011;57767;42.068;24.752;2024-02-23T05:34:03;24.85;;;21.45;;
70342;SDS011;57767;42.068;24.752;2024-02-23T05:35:05;26.45;;;21.30;;
70342;SDS011;57767;42.068;24.752;2024-02-23T05:36:07;26.73;;;20.25;;
70342;SDS011;57767;42.068;24.752;2024-02-23T05:37:09;25.70;;;20.65;;
70342;SDS011;57767;42.068;24.752;2024-02-23T05:38:11;23.83;;;19.92;;
70342;SDS011;57767;42.068;24.752;2024-02-23T05:39:13;27.67;;;20.73;;
70342;SDS011;57767;42.068;24.752;2024-02-23T05:40:16;25.70;;;20.33;;
70342;SDS011;57767;42.068;24.752;2024-02-23T05:41:20;24.73;;;19.60;;
70342;SDS011;57767;42.068;24.752;2024-02-23T05:42:22;27.30;;;21.13;;
70342;SDS011;57767;42.068;24.752;2024-02-23T05:43:24;26.05;;;20.65;;
70342;SDS011;57767;42.068;24.752;2024-02-23T05:44:25;25.90;;;21.17;;
70342;SDS011;57767;42.068;24.752;2024-02-23T05:45:27;30.17;;;21.40;;
70342;SDS011;57767;42.068;24.752;2024-02-23T05:46:29;27.27;;;20.88;;
70342;SDS011;57767;42.068;24.752;2024-02-23T05:47:31;26.63;;;20.65;;
70342;SDS011;57767;42.068;24.752;2024-02-23T05:48:33;21.73;;;19.40;;
70342;SDS011;57767;42.068;24.752;2024-02-23T05:49:34;25.88;;;20.30;;
70342;SDS011;57767;42.068;24.752;2024-02-23T05:50:36;27.10;;;19.80;;
70342;SDS011;57767;42.068;24.752;2024-02-23T05:51:38;24.88;;;20.52;;
70342;SDS011;57767;42.068;24.752;2024-02-23T05:52:39;28.15;;;18.92;;
70342;SDS011;57767;42.068;24.752;2024-02-23T05:53:43;26.83;;;19.50;;
70342;SDS011;57767;42.068;24.752;2024-02-23T05:54:45;29.70;;;21.40;;
70342;SDS011;57767;42.068;24.752;2024-02-23T05:55:49;29.67;;;20.83;;
70342;SDS011;57767;42.068;24.752;2024-02-23T05:56:50;29.77;;;21.05;;